Time;durP1;ratioP1;P1;durP2;ratioP2;P2;SDS_P1;SDS_P2;PMS_P1;PMS_P2;Temp;Humidity;BMP_temperature;BMP_pressure;BME280_temperature;BME280_humidity;BME280_pressure;Samples;Min_cycle;Max_cycle;Signal;HPM_P1;HPM_P2
2021/03/10 00:00:23;;;;;;;2.67;2.47;;;;;14.40;100684.00;;;;2086063;28;20296;-70
2021/03/10 00:01:24;;;;;;;2.60;2.40;;;;;14.40;100688.00;;;;2075463;28;20652;-70
2021/03/10 00:02:24;;;;;;;2.80;2.50;;;;;14.40;100680.00;;;;2076529;28;20215;-70
2021/03/10 00:03:24;;;;;;;3.00;2.63;;;;;14.40;100680.00;;;;2077390;28;20676;-70
2021/03/10 00:04:25;;;;;;;2.20;2.00;;;;;14.40;100679.00;;;;2077327;28;20225;-70
2021/03/10 00:05:25;;;;;;;2.97;2.70;;;;;14.40;100680.00;;;;2086117;28;20302;-70
2021/03/10 00:06:26;;;;;;;3.00;2.70;;;;;14.40;100682.00;;;;2085579;28;20592;-70
2021/03/10 00:07:26;;;;;;;2.73;2.53;;;;;14.40;100681.00;;;;2086225;28;20233;-70
2021/03/10 00:08:26;;;;;;;3.30;2.90;;;;;14.40;100677.00;;;;2091861;28;20256;-70
2021/03/10 00:09:27;;;;;;;2.73;2.53;;;;;14.40;100680.00;;;;2091622;28;20955;-70
2021/03/10 00:10:27;;;;;;;2.80;2.60;;;;;14.40;100677.00;;;;2086204;28;20240;-70
2021/03/10 00:11:27;;;;;;;2.20;2.10;;;;;14.40;100681.00;;;;2074354;28;20304;-70
2021/03/10 00:12:28;;;;;;;3.00;2.80;;;;;14.40;100670.00;;;;2066554;28;20264;-69
2021/03/10 00:13:28;;;;;;;2.73;2.53;;;;;14.40;100675.00;;;;2070221;28;20211;-70
2021/03/10 00:14:29;;;;;;;2.60;2.40;;;;;14.40;100674.00;;;;2083471;28;20222;-70
2021/03/10 00:15:29;;;;;;;2.60;2.40;;;;;14.40;100668.00;;;;2082985;28;20215;-70
2021/03/10 00:16:29;;;;;;;3.10;2.80;;;;;14.40;100671.00;;;;2070844;28;20214;-70
2021/03/10 00:17:30;;;;;;;2.73;2.53;;;;;14.40;100672.00;;;;2077523;28;20214;-70
2021/03/10 00:18:31;;;;;;;2.67;2.47;;;;;14.40;100678.00;;;;2086776;28;20217;-70
2021/03/10 00:19:31;;;;;;;2.73;2.53;;;;;14.40;100678.00;;;;2084892;28;20831;-66
2021/03/10 00:20:31;;;;;;;2.47;2.27;;;;;14.40;100676.00;;;;2085860;28;20210;-67
2021/03/10 00:21:32;;;;;;;2.40;2.20;;;;;14.40;100674.00;;;;2085972;28;20227;-70
2021/03/10 00:22:32;;;;;;;3.10;2.80;;;;;14.40;100668.00;;;;2086002;28;20215;-70
2021/03/10 00:23:32;;;;;;;2.43;2.23;;;;;14.40;100668.00;;;;2077152;28;20198;-70
2021/03/10 00:24:33;;;;;;;2.50;2.30;;;;;14.40;100682.00;;;;2070686;28;20217;-70
2021/03/10 00:25:33;;;;;;;2.50;2.30;;;;;14.40;100670.00;;;;2091081;28;20204;-70
2021/03/10 00:26:33;;;;;;;2.40;2.20;;;;;14.40;100679.00;;;;2088755;28;20205;-70
2021/03/10 00:27:34;;;;;;;2.67;2.43;;;;;14.40;100675.00;;;;2086147;28;20675;-70
2021/03/10 00:28:34;;;;;;;3.00;2.80;;;;;14.40;100677.00;;;;2086076;28;20872;-70
2021/03/10 00:29:35;;;;;;;2.40;2.20;;;;;14.40;100674.00;;;;2085919;28;20213;-70
2021/03/10 00:30:35;;;;;;;2.60;2.40;;;;;14.40;100669.00;;;;2085903;28;20209;-71
2021/03/10 00:31:35;;;;;;;2.60;2.40;;;;;14.40;100676.00;;;;2086034;28;20259;-70
2021/03/10 00:32:36;;;;;;;2.50;2.30;;;;;14.40;100675.00;;;;2085579;28;20244;-70
2021/03/10 00:33:36;;;;;;;2.70;2.50;;;;;14.40;100667.00;;;;2076913;28;20209;-70
2021/03/10 00:34:37;;;;;;;2.70;2.50;;;;;14.40;100681.00;;;;2077003;28;20297;-71
2021/03/10 00:35:37;;;;;;;2.60;2.20;;;;;14.40;100676.00;;;;2085467;28;20205;-70
2021/03/10 00:36:37;;;;;;;2.70;2.50;;;;;14.40;100686.00;;;;2086052;28;20745;-70
2021/03/10 00:37:38;;;;;;;2.83;2.53;;;;;14.40;100685.00;;;;2085892;28;20212;-69
2021/03/10 00:38:38;;;;;;;2.53;2.33;;;;;14.40;100689.00;;;;2085457;28;20213;-70
2021/03/10 00:39:38;;;;;;;2.80;2.60;;;;;14.40;100693.00;;;;2086050;28;20214;-70
2021/03/10 00:40:39;;;;;;;2.63;2.43;;;;;14.40;100691.00;;;;2085864;28;20785;-70
2021/03/10 00:41:39;;;;;;;2.87;2.60;;;;;14.40;100687.00;;;;2077270;28;20201;-70
2021/03/10 00:42:39;;;;;;;2.50;2.30;;;;;14.40;100683.00;;;;2077352;28;20220;-70
2021/03/10 00:43:40;;;;;;;2.60;2.40;;;;;14.40;100682.00;;;;2085930;28;20307;-70
2021/03/10 00:44:40;;;;;;;2.63;2.43;;;;;14.40;100682.00;;;;2085861;28;20209;-70
2021/03/10 00:45:40;;;;;;;2.53;2.33;;;;;14.40;100685.00;;;;2084701;28;20293;-70
2021/03/10 00:46:41;;;;;;;2.27;2.10;;;;;14.40;100689.00;;;;2086685;28;20224;-70
2021/03/10 00:47:41;;;;;;;2.60;2.40;;;;;14.40;100695.00;;;;2086582;28;20217;-70
2021/03/10 00:48:41;;;;;;;2.40;2.20;;;;;14.40;100689.00;;;;2086430;28;20217;-70
2021/03/10 00:49:42;;;;;;;2.80;2.60;;;;;14.40;100689.00;;;;2068798;28;20207;-70
2021/03/10 00:50:43;;;;;;;2.70;2.50;;;;;14.40;100693.00;;;;2068900;28;20203;-69
2021/03/10 00:51:43;;;;;;;2.93;2.73;;;;;14.40;100693.00;;;;2077162;28;20206;-70
2021/03/10 00:52:43;;;;;;;2.50;2.30;;;;;14.40;100695.00;;;;2085749;28;20332;-70
2021/03/10 00:53:44;;;;;;;2.70;2.40;;;;;14.40;100706.00;;;;2085943;28;20203;-70
2021/03/10 00:54:44;;;;;;;2.93;2.70;;;;;14.40;100691.00;;;;2085896;28;20209;-70
2021/03/10 00:55:44;;;;;;;2.30;2.10;;;;;14.40;100696.00;;;;2085475;28;20205;-70
2021/03/10 00:56:45;;;;;;;2.90;2.70;;;;;14.40;100691.00;;;;2085949;28;20209;-70
2021/03/10 00:57:45;;;;;;;2.50;2.30;;;;;14.40;100700.00;;;;2085928;28;20296;-70
2021/03/10 00:58:48;;;;;;;2.70;2.47;;;;;14.40;100697.00;;;;2085897;28;20706;-70
2021/03/10 00:59:49;;;;;;;2.45;2.25;;;;;14.40;100691.00;;;;2085858;28;21028;-70
2021/03/10 01:00:49;;;;;;;3.17;2.30;;;;;14.40;100693.00;;;;2085665;28;20339;-70
2021/03/10 01:01:49;;;;;;;2.47;2.30;;;;;14.40;100693.00;;;;2085855;28;20209;-70
2021/03/10 01:02:50;;;;;;;2.50;2.30;;;;;14.40;100686.00;;;;2085631;28;20305;-70
2021/03/10 01:03:50;;;;;;;2.53;2.33;;;;;14.40;100686.00;;;;2085109;28;20305;-70
2021/03/10 01:04:51;;;;;;;2.47;2.27;;;;;14.40;100689.00;;;;2085631;28;20205;-70
2021/03/10 01:05:51;;;;;;;2.57;2.37;;;;;14.40;100695.00;;;;2084289;28;20305;-71
2021/03/10 01:06:51;;;;;;;2.93;2.73;;;;;14.40;100691.00;;;;2076646;28;20219;-71
2021/03/10 01:07:52;;;;;;;5.37;3.00;;;;;14.40;100692.00;;;;2076562;28;20236;-70
2021/03/10 01:08:52;;;;;;;2.63;2.43;;;;;14.40;100696.00;;;;2084882;28;20287;-70
2021/03/10 01:09:53;;;;;;;2.63;2.43;;;;;14.40;100690.00;;;;2085797;28;20329;-70
2021/03/10 01:10:53;;;;;;;2.63;2.43;;;;;14.40;100691.00;;;;2091107;28;20225;-70
2021/03/10 01:11:53;;;;;;;3.40;3.10;;;;;14.40;100688.00;;;;2091154;28;20206;-69
2021/03/10 01:12:54;;;;;;;3.00;2.80;;;;;14.40;100687.00;;;;2085398;28;20297;-70
2021/03/10 01:13:54;;;;;;;3.13;2.90;;;;;14.40;100689.00;;;;2085611;28;20201;-70
2021/03/10 01:14:54;;;;;;;2.47;2.27;;;;;14.40;100691.00;;;;2088218;28;20206;-70
2021/03/10 01:15:55;;;;;;;2.67;2.47;;;;;14.40;100694.00;;;;2086213;28;20284;-70
2021/03/10 01:16:55;;;;;;;2.90;2.70;;;;;14.40;100683.00;;;;2085765;28;20202;-70
2021/03/10 01:17:55;;;;;;;2.67;2.47;;;;;14.40;100699.00;;;;2086453;28;20202;-71
2021/03/10 01:18:56;;;;;;;2.53;2.33;;;;;14.40;100698.00;;;;2083346;28;20218;-70
2021/03/10 01:19:56;;;;;;;2.70;2.50;;;;;14.40;100702.00;;;;2085794;28;20213;-70
2021/03/10 01:20:57;;;;;;;2.80;2.60;;;;;14.40;100701.00;;;;2085709;28;20708;-70
2021/03/10 01:21:57;;;;;;;2.63;2.43;;;;;14.40;100706.00;;;;2085567;28;20581;-70
2021/03/10 01:22:57;;;;;;;3.70;3.30;;;;;14.40;100705.00;;;;2085566;28;20616;-70
2021/03/10 01:23:58;;;;;;;3.43;3.13;;;;;14.40;100702.00;;;;2085592;28;20604;-70
2021/03/10 01:24:58;;;;;;;3.33;3.03;;;;;14.40;100712.00;;;;2085546;28;20292;-70
2021/03/10 01:25:59;;;;;;;2.83;2.63;;;;;14.40;100716.00;;;;2085190;28;20218;-70
2021/03/10 01:26:59;;;;;;;3.27;2.97;;;;;14.40;100708.00;;;;2085454;28;20909;-70
2021/03/10 01:27:59;;;;;;;3.00;2.80;;;;;14.40;100719.00;;;;2085595;28;20237;-70
2021/03/10 01:29:00;;;;;;;2.90;2.70;;;;;14.40;100710.00;;;;2085096;28;20225;-70
2021/03/10 01:30:00;;;;;;;3.07;2.77;;;;;14.40;100713.00;;;;2085766;28;20217;-70
2021/03/10 01:31:01;;;;;;;3.53;3.23;;;;;14.40;100712.00;;;;2085539;28;20704;-70
2021/03/10 01:32:01;;;;;;;3.40;3.10;;;;;14.40;100710.00;;;;2085082;28;20221;-70
2021/03/10 01:33:01;;;;;;;3.13;2.83;;;;;14.40;100711.00;;;;2085255;28;20206;-70
2021/03/10 01:34:02;;;;;;;2.73;2.50;;;;;14.40;100708.00;;;;2078977;28;20244;-70
2021/03/10 01:35:03;;;;;;;2.83;2.53;;;;;14.40;100705.00;;;;2078951;28;20732;-70
2021/03/10 01:36:04;;;;;;;3.53;3.22;;;;;14.40;100712.00;;;;2076474;28;20214;-70
2021/03/10 01:37:04;;;;;;;3.23;3.03;;;;;14.40;100716.00;;;;2076816;28;20756;-71
2021/03/10 01:38:04;;;;;;;3.73;3.17;;;;;14.40;100708.00;;;;2076791;28;20214;-70
2021/03/10 01:39:05;;;;;;;2.87;2.63;;;;;14.40;100717.00;;;;2076725;28;20211;-68
2021/03/10 01:40:10;;;;;;;3.17;2.93;;;;;14.40;100720.00;;;;2085386;28;20214;-70
2021/03/10 01:41:12;;;;;;;3.10;2.90;;;;;14.40;100713.00;;;;2085316;28;20213;-70
2021/03/10 01:42:13;;;;;;;3.15;2.95;;;;;14.30;100717.00;;;;2087741;28;20221;-70
2021/03/10 01:43:13;;;;;;;3.83;3.53;;;;;14.30;100723.00;;;;2085473;28;20564;-70
2021/03/10 01:44:15;;;;;;;3.40;3.10;;;;;14.40;100724.00;;;;2087732;28;20210;-70
2021/03/10 01:45:15;;;;;;;3.15;2.90;;;;;14.40;100720.00;;;;2085529;28;20198;-70
2021/03/10 01:46:16;;;;;;;3.53;3.23;;;;;14.40;100720.00;;;;2086434;28;20787;-70
2021/03/10 01:47:16;;;;;;;3.40;3.10;;;;;14.40;100719.00;;;;2086723;28;20217;-70
2021/03/10 01:48:19;;;;;;;3.40;3.10;;;;;14.40;100711.00;;;;2071109;28;20202;-70
2021/03/10 01:49:20;;;;;;;3.78;3.40;;;;;14.40;100717.00;;;;2071778;28;20207;-70
2021/03/10 01:50:20;;;;;;;3.10;2.90;;;;;14.40;100713.00;;;;2063101;28;20207;-70
2021/03/10 01:51:20;;;;;;;3.77;3.37;;;;;14.40;100718.00;;;;2047011;28;20296;-71
2021/03/10 01:52:21;;;;;;;3.40;3.10;;;;;14.40;100719.00;;;;2067301;28;20210;-70
2021/03/10 01:53:21;;;;;;;4.33;3.43;;;;;14.40;100722.00;;;;2074502;28;20205;-70
2021/03/10 01:54:22;;;;;;;3.97;3.43;;;;;14.40;100726.00;;;;2076603;28;20206;-70
2021/03/10 01:55:23;;;;;;;3.40;3.10;;;;;14.40;100722.00;;;;2076600;28;20202;-70
2021/03/10 01:56:25;;;;;;;3.22;2.92;;;;;14.40;100725.00;;;;2076325;28;20221;-69
2021/03/10 01:57:25;;;;;;;4.10;3.50;;;;;14.30;100722.00;;;;2076713;28;20248;-70
2021/03/10 01:58:25;;;;;;;3.80;3.50;;;;;14.40;100717.00;;;;2071254;28;20635;-70
2021/03/10 01:59:26;;;;;;;3.03;2.83;;;;;14.30;100729.00;;;;2086242;28;20224;-70
2021/03/10 02:00:29;;;;;;;3.63;3.33;;;;;14.30;100724.00;;;;2082435;28;20493;-70
2021/03/10 02:01:29;;;;;;;3.22;2.92;;;;;14.30;100730.00;;;;2082522;28;20218;-70
2021/03/10 02:02:29;;;;;;;4.00;3.60;;;;;14.40;100718.00;;;;2085139;28;20213;-70
2021/03/10 02:03:30;;;;;;;3.90;3.60;;;;;14.40;100726.00;;;;2085141;28;20213;-70
2021/03/10 02:04:30;;;;;;;3.87;3.57;;;;;14.40;100722.00;;;;2085235;28;20217;-72
2021/03/10 02:05:30;;;;;;;3.97;3.67;;;;;14.40;100725.00;;;;2092983;28;20218;-70
2021/03/10 02:06:39;;;;;;;3.63;3.33;;;;;14.40;100716.00;;;;2087894;28;20244;-70
2021/03/10 02:07:53;;;;;;;3.90;3.60;;;;;14.30;100708.00;;;;2084907;28;20213;-69
2021/03/10 02:09:00;;;;;;;3.10;2.90;;;;;14.30;100715.00;;;;2076260;28;20210;-70
2021/03/10 02:10:18;;;;;;;3.53;3.22;;;;;14.30;100716.00;;;;2067327;28;20609;-70
2021/03/10 02:11:32;;;;;;;3.25;2.95;;;;;14.30;100707.00;;;;2079033;28;20224;-69
2021/03/10 02:12:53;;;;;;;3.78;3.47;;;;;14.30;100701.00;;;;2085328;28;20242;-70
2021/03/10 02:13:55;;;;;;;3.28;3.00;;;;;14.30;100692.00;;;;2090204;28;20201;-70
2021/03/10 02:15:11;;;;;;;3.47;3.17;;;;;14.30;100690.00;;;;2084406;28;20279;-70
2021/03/10 02:16:27;;;;;;;4.07;3.65;;;;;14.30;100692.00;;;;2084402;28;20213;-70
2021/03/10 02:17:30;;;;;;;3.28;2.97;;;;;14.40;100687.00;;;;2079527;28;20271;-70
2021/03/10 02:19:09;;;;;;;3.53;3.22;;;;;14.40;100688.00;;;;2070126;28;20277;-70
2021/03/10 02:20:22;;;;;;;3.70;3.40;;;;;14.40;100691.00;;;;2081710;28;20293;-70
2021/03/10 02:21:42;;;;;;;3.70;3.40;;;;;14.40;100691.00;;;;2086302;28;20582;-70
2021/03/10 02:23:01;;;;;;;3.50;3.20;;;;;14.30;100693.00;;;;2081203;28;20239;-69
2021/03/10 02:24:11;;;;;;;3.25;2.88;;;;;14.30;100699.00;;;;2079143;28;20214;-70
2021/03/10 02:25:22;;;;;;;3.30;3.05;;;;;14.30;100690.00;;;;2071174;28;20207;-70
2021/03/10 02:26:32;;;;;;;4.90;3.60;;;;;14.30;100686.00;;;;2066697;28;20310;-70
2021/03/10 02:27:41;;;;;;;3.80;3.50;;;;;14.30;100689.00;;;;2077844;28;20218;-71
2021/03/10 02:28:41;;;;;;;3.30;3.10;;;;;14.40;100675.00;;;;2079901;28;20212;-70
2021/03/10 02:29:41;;;;;;;3.57;3.27;;;;;14.40;100689.00;;;;2065003;28;20239;-70
2021/03/10 02:30:43;;;;;;;3.80;3.50;;;;;14.40;100688.00;;;;2054039;28;20262;-70
2021/03/10 02:31:48;;;;;;;4.00;3.60;;;;;14.40;100687.00;;;;2070354;28;20206;-70
2021/03/10 02:32:59;;;;;;;3.63;3.33;;;;;14.30;100699.00;;;;2078281;28;20214;-70
2021/03/10 02:33:59;;;;;;;3.50;3.20;;;;;14.40;100693.00;;;;2072820;28;20214;-70
2021/03/10 02:35:01;;;;;;;3.97;3.53;;;;;14.30;100690.00;;;;2081362;28;20206;-70
2021/03/10 02:36:05;;;;;;;4.22;3.83;;;;;14.30;100689.00;;;;2075259;28;20723;-70
2021/03/10 02:37:06;;;;;;;3.45;3.15;;;;;14.40;100694.00;;;;2067836;28;20817;-70
2021/03/10 02:38:07;;;;;;;4.00;3.70;;;;;14.30;100688.00;;;;2067465;28;20302;-70
2021/03/10 02:39:08;;;;;;;4.15;3.70;;;;;14.30;100678.00;;;;2075887;28;20214;-70
2021/03/10 02:40:08;;;;;;;4.67;4.27;;;;;14.40;100688.00;;;;2075886;28;20223;-70
2021/03/10 02:41:10;;;;;;;3.90;3.60;;;;;14.30;100681.00;;;;2067971;28;20250;-70
2021/03/10 02:42:10;;;;;;;3.75;3.45;;;;;14.30;100682.00;;;;2071164;28;20454;-70
2021/03/10 02:43:10;;;;;;;4.33;3.40;;;;;14.40;100685.00;;;;2084234;28;20786;-70
2021/03/10 02:44:11;;;;;;;3.40;3.10;;;;;14.30;100679.00;;;;2070678;28;20653;-70
2021/03/10 02:45:12;;;;;;;3.70;3.40;;;;;14.30;100691.00;;;;2070480;28;20233;-70
2021/03/10 02:46:13;;;;;;;4.87;4.37;;;;;14.40;100688.00;;;;2069669;28;20446;-70
2021/03/10 02:47:13;;;;;;;3.60;3.30;;;;;14.40;100692.00;;;;2054752;28;20227;-70
2021/03/10 02:48:14;;;;;;;4.03;3.67;;;;;14.30;100692.00;;;;2062605;28;20463;-70
2021/03/10 02:49:14;;;;;;;3.40;3.10;;;;;14.40;100692.00;;;;2060168;28;20685;-70
2021/03/10 02:50:14;;;;;;;3.97;3.60;;;;;14.40;100692.00;;;;2067602;28;20211;-71
2021/03/10 02:51:15;;;;;;;3.43;3.10;;;;;14.40;100688.00;;;;2073795;28;20707;-70
2021/03/10 02:52:15;;;;;;;4.20;3.80;;;;;14.40;100694.00;;;;2065520;28;20333;-70
2021/03/10 02:53:16;;;;;;;3.80;3.50;;;;;14.40;100692.00;;;;2059968;28;20211;-70
2021/03/10 02:54:16;;;;;;;3.80;3.50;;;;;14.40;100686.00;;;;2081807;28;20210;-70
2021/03/10 02:55:16;;;;;;;3.70;3.40;;;;;14.30;100697.00;;;;2073776;28;20211;-70
2021/03/10 02:56:17;;;;;;;3.33;3.03;;;;;14.30;100688.00;;;;2059516;28;20242;-70
2021/03/10 02:57:18;;;;;;;3.37;3.07;;;;;14.30;100682.00;;;;2076251;28;20576;-70
2021/03/10 02:58:18;;;;;;;3.70;3.40;;;;;14.30;100682.00;;;;2076052;28;20214;-70
2021/03/10 02:59:18;;;;;;;4.13;3.70;;;;;14.30;100683.00;;;;2076035;28;20639;-69
2021/03/10 03:00:20;;;;;;;3.80;3.50;;;;;14.40;100682.00;;;;2090070;28;20275;-69
2021/03/10 03:01:20;;;;;;;3.63;3.33;;;;;14.40;100677.00;;;;2081547;28;20267;-70
2021/03/10 03:02:21;;;;;;;3.90;3.60;;;;;14.40;100678.00;;;;2068144;28;20254;-70
2021/03/10 03:03:21;;;;;;;3.40;3.10;;;;;14.40;100686.00;;;;2076104;28;20202;-70
2021/03/10 03:04:22;;;;;;;3.90;3.60;;;;;14.30;100686.00;;;;2084901;28;20274;-70
2021/03/10 03:05:22;;;;;;;4.30;3.90;;;;;14.40;100687.00;;;;2084939;28;20212;-70
2021/03/10 03:06:22;;;;;;;4.40;4.00;;;;;14.30;100673.00;;;;2084368;28;20205;-64
2021/03/10 03:07:23;;;;;;;4.20;3.80;;;;;14.30;100629.00;;;;2084291;28;20228;-64
2021/03/10 03:08:23;;;;;;;4.40;3.87;;;;;14.30;100679.00;;;;2084430;28;20564;-65
2021/03/10 03:09:24;;;;;;;3.80;3.50;;;;;14.30;100684.00;;;;2081253;28;20217;-64
2021/03/10 03:10:26;;;;;;;4.13;3.73;;;;;14.30;100674.00;;;;2081162;28;20214;-64
2021/03/10 03:11:26;;;;;;;4.18;3.70;;;;;14.40;100690.00;;;;2084396;28;20216;-64
2021/03/10 03:12:27;;;;;;;3.70;3.40;;;;;14.40;100676.00;;;;2089584;28;20287;-64
2021/03/10 03:13:27;;;;;;;4.05;3.58;;;;;14.30;100676.00;;;;2089724;28;20205;-63
2021/03/10 03:14:28;;;;;;;3.83;3.53;;;;;14.30;100675.00;;;;2089858;28;20580;-65
2021/03/10 03:15:28;;;;;;;4.20;3.60;;;;;14.30;100673.00;;;;2081618;28;20296;-65
2021/03/10 03:16:29;;;;;;;4.17;3.77;;;;;14.30;100673.00;;;;2076399;28;20308;-65
2021/03/10 03:17:30;;;;;;;3.93;3.57;;;;;14.40;100673.00;;;;2077409;28;20214;-64
2021/03/10 03:18:30;;;;;;;3.93;3.50;;;;;14.40;100677.00;;;;2077521;28;20653;-65
2021/03/10 03:19:30;;;;;;;4.73;4.23;;;;;14.30;100668.00;;;;2075905;28;20708;-64
2021/03/10 03:20:31;;;;;;;4.37;3.97;;;;;14.30;100670.00;;;;2084905;28;20546;-64
2021/03/10 03:21:33;;;;;;;3.53;3.23;;;;;14.30;100666.00;;;;2089459;28;20216;-64
2021/03/10 03:22:34;;;;;;;4.65;3.70;;;;;14.30;100670.00;;;;2073249;28;20237;-64
2021/03/10 03:23:34;;;;;;;4.20;3.90;;;;;14.40;100662.00;;;;2067775;28;20202;-64
2021/03/10 03:24:34;;;;;;;3.60;3.30;;;;;14.30;100663.00;;;;2067814;28;20229;-64
2021/03/10 03:25:37;;;;;;;3.50;3.20;;;;;14.30;100674.00;;;;2061674;28;20207;-64
2021/03/10 03:26:37;;;;;;;3.65;3.35;;;;;14.30;100673.00;;;;2060186;28;20203;-64
2021/03/10 03:27:37;;;;;;;3.17;2.93;;;;;14.40;100676.00;;;;2076014;28;20210;-64
2021/03/10 03:28:38;;;;;;;4.90;3.57;;;;;14.40;100678.00;;;;2075948;28;20225;-64
2021/03/10 03:29:38;;;;;;;4.03;3.50;;;;;14.30;100678.00;;;;2068738;28;20214;-64
2021/03/10 03:30:38;;;;;;;3.53;3.23;;;;;14.40;100674.00;;;;2077089;28;20298;-64
2021/03/10 03:31:39;;;;;;;3.70;3.40;;;;;14.30;100678.00;;;;2083240;28;20213;-64
2021/03/10 03:32:39;;;;;;;3.90;3.50;;;;;14.40;100664.00;;;;2077109;28;20218;-64
2021/03/10 03:33:40;;;;;;;3.90;3.47;;;;;14.40;100672.00;;;;2075116;28;20218;-65
2021/03/10 03:34:41;;;;;;;3.80;3.50;;;;;14.40;100672.00;;;;2084362;28;20251;-64
2021/03/10 03:35:42;;;;;;;3.80;3.50;;;;;14.40;100672.00;;;;2082711;28;20451;-65
2021/03/10 03:36:42;;;;;;;3.00;2.80;;;;;14.40;100669.00;;;;2084891;28;20237;-64
2021/03/10 03:37:46;;;;;;;4.30;3.60;;;;;14.40;100642.00;;;;2077849;28;20553;-64
2021/03/10 03:38:46;;;;;;;3.85;3.45;;;;;14.40;100671.00;;;;2072254;28;20221;-64
2021/03/10 03:39:47;;;;;;;4.00;3.43;;;;;14.30;100663.00;;;;2077930;28;20718;-64
2021/03/10 03:40:50;;;;;;;4.40;4.00;;;;;14.40;100669.00;;;;2077010;28;20844;-64
2021/03/10 03:41:52;;;;;;;3.78;3.47;;;;;14.30;100667.00;;;;2077344;28;20271;-64
2021/03/10 03:42:52;;;;;;;4.57;3.63;;;;;14.30;100670.00;;;;2060626;28;20219;-64
2021/03/10 03:43:52;;;;;;;3.47;3.17;;;;;14.30;100674.00;;;;2060621;28;20223;-64
2021/03/10 03:44:53;;;;;;;4.30;3.90;;;;;14.30;100673.00;;;;2076760;28;20297;-64
2021/03/10 03:45:53;;;;;;;4.80;4.13;;;;;14.40;100675.00;;;;2078238;28;20418;-64
2021/03/10 03:46:54;;;;;;;4.47;3.73;;;;;14.40;100667.00;;;;2072773;28;20221;-64
2021/03/10 03:47:55;;;;;;;4.03;3.57;;;;;14.30;100666.00;;;;2072616;28;20288;-64
2021/03/10 03:48:57;;;;;;;3.67;3.33;;;;;14.30;100672.00;;;;2077030;28;20218;-64
2021/03/10 03:49:58;;;;;;;4.25;3.85;;;;;14.40;100667.00;;;;2084988;28;20205;-64
2021/03/10 03:50:58;;;;;;;3.87;3.57;;;;;14.40;100669.00;;;;2083123;28;20272;-64
2021/03/10 03:51:58;;;;;;;4.00;3.63;;;;;14.30;100657.00;;;;2085121;28;20229;-64
2021/03/10 03:52:59;;;;;;;4.00;3.60;;;;;14.30;100670.00;;;;2085466;28;20212;-64
2021/03/10 03:54:03;;;;;;;4.07;3.67;;;;;14.30;100661.00;;;;2085556;28;20293;-65
2021/03/10 03:55:04;;;;;;;3.97;3.67;;;;;14.40;100647.00;;;;2085648;28;20289;-64
2021/03/10 03:56:05;;;;;;;3.73;3.43;;;;;14.30;100665.00;;;;2078758;28;20953;-64
2021/03/10 03:57:05;;;;;;;3.90;3.50;;;;;14.30;100660.00;;;;2071369;28;20453;-64
2021/03/10 03:58:06;;;;;;;3.73;3.43;;;;;14.30;100659.00;;;;2076706;28;20214;-64
2021/03/10 03:59:06;;;;;;;4.53;4.07;;;;;14.40;100671.00;;;;2085754;28;20210;-64
2021/03/10 04:00:08;;;;;;;3.73;3.43;;;;;14.30;100663.00;;;;2085614;28;20226;-64
2021/03/10 04:01:09;;;;;;;4.75;3.80;;;;;14.40;100671.00;;;;2085053;28;20207;-64
2021/03/10 04:02:09;;;;;;;4.23;3.83;;;;;14.30;100666.00;;;;2085319;28;20221;-64
2021/03/10 04:03:09;;;;;;;3.63;3.33;;;;;14.30;100672.00;;;;2085462;28;20205;-64
2021/03/10 04:04:10;;;;;;;3.70;3.40;;;;;14.30;100669.00;;;;2085167;28;20287;-64
2021/03/10 04:05:11;;;;;;;4.43;4.00;;;;;14.30;100674.00;;;;2085611;28;20212;-65
2021/03/10 04:06:15;;;;;;;3.45;3.15;;;;;14.30;100671.00;;;;2084950;28;20214;-64
2021/03/10 04:07:15;;;;;;;3.50;3.20;;;;;14.30;100664.00;;;;2085453;28;20292;-64
2021/03/10 04:08:17;;;;;;;3.73;3.30;;;;;14.30;100678.00;;;;2085443;28;20217;-63
2021/03/10 04:09:18;;;;;;;4.68;4.25;;;;;14.30;100669.00;;;;2085724;28;20221;-64
2021/03/10 04:10:23;;;;;;;3.60;3.30;;;;;14.30;100673.00;;;;2085778;28;20333;-64
2021/03/10 04:11:23;;;;;;;3.95;3.63;;;;;14.30;100667.00;;;;2085360;28;20267;-63
2021/03/10 04:12:24;;;;;;;4.27;3.60;;;;;14.30;100674.00;;;;2085695;28;20778;-64
2021/03/10 04:13:24;;;;;;;4.00;3.60;;;;;14.30;100675.00;;;;2085406;28;20229;-64
2021/03/10 04:14:24;;;;;;;3.90;3.50;;;;;14.40;100678.00;;;;2085329;28;20225;-64
2021/03/10 04:15:25;;;;;;;3.47;3.17;;;;;14.40;100679.00;;;;2085007;28;20213;-64
2021/03/10 04:16:26;;;;;;;4.27;3.87;;;;;14.40;100670.00;;;;2085337;28;20282;-64
2021/03/10 04:17:26;;;;;;;3.80;3.50;;;;;14.40;100665.00;;;;2085678;28;21120;-63
2021/03/10 04:18:26;;;;;;;3.47;3.17;;;;;14.30;100672.00;;;;2083814;28;20640;-65
2021/03/10 04:19:27;;;;;;;4.40;4.00;;;;;14.30;100675.00;;;;2085658;28;20692;-64
2021/03/10 04:20:27;;;;;;;3.50;3.20;;;;;14.30;100666.00;;;;2085329;28;20240;-64
2021/03/10 04:21:27;;;;;;;4.10;3.70;;;;;14.30;100667.00;;;;2077109;28;20217;-64
2021/03/10 04:22:28;;;;;;;3.57;3.23;;;;;14.30;100669.00;;;;2076934;28;20248;-64
2021/03/10 04:23:28;;;;;;;3.77;3.30;;;;;14.30;100671.00;;;;2085818;28;20259;-64
2021/03/10 04:24:29;;;;;;;3.73;3.43;;;;;14.30;100666.00;;;;2085826;28;20217;-64
2021/03/10 04:25:29;;;;;;;4.10;3.57;;;;;14.30;100665.00;;;;2077183;28;20285;-64
2021/03/10 04:26:29;;;;;;;3.50;3.20;;;;;14.30;100662.00;;;;2076364;28;20707;-64
2021/03/10 04:27:30;;;;;;;3.93;3.53;;;;;14.30;100663.00;;;;2085063;28;20217;-64
2021/03/10 04:28:30;;;;;;;3.80;3.50;;;;;14.30;100664.00;;;;2085946;28;20279;-64
2021/03/10 04:29:30;;;;;;;3.97;3.57;;;;;14.30;100661.00;;;;2085755;28;20363;-63
2021/03/10 04:30:32;;;;;;;3.77;3.40;;;;;14.30;100660.00;;;;2086073;28;20217;-64
2021/03/10 04:31:32;;;;;;;3.53;3.22;;;;;14.30;100665.00;;;;2084486;28;20217;-64
2021/03/10 04:32:33;;;;;;;4.00;3.60;;;;;14.30;100659.00;;;;2085435;28;20305;-64
2021/03/10 04:33:33;;;;;;;3.70;3.40;;;;;14.30;100660.00;;;;2085713;28;20278;-64
2021/03/10 04:34:34;;;;;;;4.07;3.47;;;;;14.30;100654.00;;;;2085536;28;20274;-64
2021/03/10 04:35:34;;;;;;;4.10;3.80;;;;;14.30;100657.00;;;;2085257;28;20240;-64
2021/03/10 04:36:34;;;;;;;4.03;3.67;;;;;14.30;100661.00;;;;2088451;28;20229;-64
2021/03/10 04:37:35;;;;;;;4.70;3.47;;;;;14.30;100661.00;;;;2083262;28;20216;-64
2021/03/10 04:38:35;;;;;;;3.80;3.50;;;;;14.30;100665.00;;;;2085840;28;20213;-63
2021/03/10 04:39:35;;;;;;;3.87;3.57;;;;;14.30;100657.00;;;;2083383;28;20213;-64
2021/03/10 04:40:36;;;;;;;3.50;3.20;;;;;14.30;100663.00;;;;2084530;28;20222;-64
2021/03/10 04:41:36;;;;;;;3.97;3.60;;;;;14.30;100663.00;;;;2085723;28;20213;-64
2021/03/10 04:42:37;;;;;;;3.60;3.30;;;;;14.30;100664.00;;;;2085746;28;20297;-64
2021/03/10 04:43:37;;;;;;;4.03;3.63;;;;;14.30;100664.00;;;;2085337;28;20210;-64
2021/03/10 04:44:38;;;;;;;4.07;3.77;;;;;14.30;100663.00;;;;2085387;28;20213;-64
2021/03/10 04:45:38;;;;;;;4.40;4.00;;;;;14.30;100658.00;;;;2085770;28;20206;-66
2021/03/10 04:46:38;;;;;;;3.60;3.30;;;;;14.30;100668.00;;;;2083371;28;20206;-64
2021/03/10 04:47:40;;;;;;;3.73;3.40;;;;;14.30;100665.00;;;;2080693;28;20210;-64
2021/03/10 04:48:40;;;;;;;3.75;3.45;;;;;14.30;100662.00;;;;2083661;28;20231;-64
2021/03/10 04:49:41;;;;;;;3.30;3.00;;;;;14.30;100669.00;;;;2085696;28;20746;-65
2021/03/10 04:50:41;;;;;;;3.53;3.23;;;;;14.30;100672.00;;;;2085626;28;20210;-63
2021/03/10 04:51:41;;;;;;;3.77;3.47;;;;;14.30;100668.00;;;;2085678;28;20202;-64
2021/03/10 04:52:43;;;;;;;3.77;3.43;;;;;14.30;100679.00;;;;2085640;28;20292;-64
2021/03/10 04:53:43;;;;;;;3.90;3.35;;;;;14.30;100675.00;;;;2085760;28;20264;-64
2021/03/10 04:54:43;;;;;;;4.47;4.07;;;;;14.30;100666.00;;;;2085194;28;20741;-64
2021/03/10 04:55:44;;;;;;;3.70;3.40;;;;;14.30;100670.00;;;;2092447;28;20712;-64
2021/03/10 04:56:44;;;;;;;3.60;3.30;;;;;14.30;100666.00;;;;2092038;28;20208;-64
2021/03/10 04:57:44;;;;;;;3.87;3.50;;;;;14.30;100661.00;;;;2085037;28;20206;-64
2021/03/10 04:58:45;;;;;;;4.57;4.17;;;;;14.30;100663.00;;;;2084823;28;20703;-64
2021/03/10 04:59:45;;;;;;;4.00;3.60;;;;;14.30;100667.00;;;;2085515;28;20607;-64
2021/03/10 05:00:46;;;;;;;4.20;3.77;;;;;14.30;100657.00;;;;2085743;28;20202;-64
2021/03/10 05:01:46;;;;;;;3.73;3.43;;;;;14.30;100664.00;;;;2085591;28;20681;-64
2021/03/10 05:02:46;;;;;;;3.70;3.40;;;;;14.30;100655.00;;;;2085736;28;20194;-64
2021/03/10 05:03:47;;;;;;;3.40;3.10;;;;;14.30;100658.00;;;;2085297;28;20214;-64